createdAt,value
2023-04-23T00:02:59.385Z,54.77
2023-04-23T00:08:02.870Z,55.29
2023-04-23T00:13:04.224Z,55.42
2023-04-23T00:18:05.019Z,55.39
2023-04-23T00:23:06.940Z,55.42
2023-04-23T00:28:07.619Z,55.73
2023-04-23T00:33:08.256Z,55.70
2023-04-23T00:38:10.509Z,56.49
2023-04-23T00:43:11.642Z,56.39
2023-04-23T00:48:13.350Z,56.66
2023-04-23T00:53:15.415Z,57.63
2023-04-23T00:58:16.045Z,57.92
2023-04-23T01:03:18.482Z,58.66
2023-04-23T01:08:22.563Z,58.19
2023-04-23T01:13:26.577Z,57.63
2023-04-23T01:18:27.658Z,58.56
2023-04-23T01:23:29.752Z,58.05
2023-04-23T01:28:31.241Z,58.60
2023-04-23T01:33:32.743Z,58.83
2023-04-23T01:38:36.896Z,59.66
2023-04-23T01:43:38.200Z,59.58
2023-04-23T01:48:39.541Z,59.54
2023-04-23T01:53:41.447Z,59.40
2023-04-23T01:58:42.330Z,60.37
2023-04-23T02:03:43.147Z,61.56
2023-04-23T02:08:45.319Z,61.40
2023-04-23T02:13:45.966Z,61.91
2023-04-23T02:18:46.568Z,61.75
2023-04-23T02:23:48.546Z,62.91
2023-04-23T02:28:49.274Z,62.49
2023-04-23T02:33:49.977Z,62.77
2023-04-23T02:38:52.004Z,63.22
2023-04-23T02:43:52.616Z,62.98
2023-04-23T02:48:53.235Z,61.70
2023-04-23T02:53:56.332Z,61.88
2023-04-23T02:58:56.991Z,61.42
2023-04-23T03:03:57.781Z,61.92
2023-04-23T03:09:00.019Z,62.39
2023-04-23T03:14:00.790Z,61.71
2023-04-23T03:19:01.940Z,61.41
2023-04-23T03:24:03.985Z,61.67
2023-04-23T03:29:06.260Z,60.98
2023-04-23T03:34:07.046Z,60.41
2023-04-23T03:39:11.044Z,60.11
2023-04-23T03:44:24.479Z,59.82
2023-04-23T03:49:27.405Z,59.62
2023-04-23T03:54:30.766Z,59.56
2023-04-23T03:59:47.336Z,59.34
2023-04-23T04:04:49.900Z,59.00
2023-04-23T04:09:52.243Z,58.72
2023-04-23T04:14:52.846Z,57.61
2023-04-23T04:19:53.444Z,58.32
2023-04-23T04:24:56.177Z,59.86
2023-04-23T04:29:56.793Z,60.34
2023-04-23T04:34:58.131Z,60.56
2023-04-23T04:40:01.442Z,60.28
2023-04-23T04:45:02.116Z,59.98
2023-04-23T04:50:02.936Z,59.38
2023-04-23T04:55:06.810Z,58.86
2023-04-23T05:00:22.517Z,58.17
2023-04-23T05:05:24.527Z,57.74
2023-04-23T05:10:26.819Z,57.17
2023-04-23T05:15:27.650Z,56.60
2023-04-23T05:20:28.323Z,56.47
2023-04-23T05:25:30.954Z,56.02
2023-04-23T05:30:31.700Z,55.69
2023-04-23T05:35:32.304Z,55.71
2023-04-23T05:40:34.413Z,55.96
2023-04-23T05:45:35.048Z,56.51
2023-04-23T05:50:35.770Z,56.92
2023-04-23T05:55:37.733Z,57.22
2023-04-23T06:00:40.682Z,57.90
2023-04-23T06:05:43.253Z,58.17
2023-04-23T06:10:45.263Z,57.94
2023-04-23T06:15:45.873Z,57.99
2023-04-23T06:20:47.376Z,57.68
2023-04-23T06:25:49.318Z,56.85
2023-04-23T06:30:49.959Z,56.30
2023-04-23T06:35:50.846Z,54.61
2023-04-23T06:40:52.971Z,54.06
2023-04-23T06:45:53.624Z,52.85
2023-04-23T06:50:54.302Z,52.14
2023-04-23T06:55:56.247Z,51.97
2023-04-23T07:00:57.224Z,52.38
2023-04-23T07:05:58.359Z,53.30
2023-04-23T07:11:00.390Z,53.23
2023-04-23T07:16:00.966Z,52.19
2023-04-23T07:21:01.625Z,51.38
2023-04-23T07:26:03.789Z,52.33
2023-04-23T07:31:04.443Z,51.74
2023-04-23T07:36:05.255Z,51.77
2023-04-23T07:41:07.272Z,51.79
2023-04-23T07:46:08.298Z,52.65
2023-04-23T07:51:10.097Z,53.14
2023-04-23T07:56:12.025Z,53.58
2023-04-23T08:01:12.715Z,53.37
2023-04-23T08:06:14.562Z,52.95
2023-04-23T08:11:16.579Z,52.98
2023-04-23T08:16:17.202Z,53.15
2023-04-23T08:21:17.869Z,53.69
2023-04-23T08:26:19.842Z,53.69
2023-04-23T08:31:26.384Z,53.25
2023-04-23T08:36:30.335Z,53.31
2023-04-23T08:41:36.344Z,51.52
2023-04-23T08:46:38.324Z,51.59
2023-04-23T08:51:42.268Z,49.54
2023-04-23T08:56:45.089Z,52.07
2023-04-23T09:01:45.737Z,52.17
2023-04-23T09:06:46.392Z,52.30
2023-04-23T09:11:48.525Z,52.41
2023-04-23T09:16:49.390Z,52.28
2023-04-23T09:21:51.259Z,52.64
2023-04-23T09:26:54.871Z,51.15
2023-04-23T09:31:57.474Z,51.14
2023-04-23T09:36:58.172Z,49.96
2023-04-23T09:42:04.965Z,50.83
2023-04-23T09:47:10.548Z,50.71
2023-04-23T09:52:11.185Z,49.18
2023-04-23T09:57:13.398Z,49.03
2023-04-23T10:02:14.240Z,49.69
2023-04-23T10:07:20.140Z,49.79
2023-04-23T10:17:26.901Z,50.01
2023-04-23T10:22:30.036Z,47.98
2023-04-23T10:27:40.371Z,47.96
2023-04-23T10:32:52.685Z,48.71
2023-04-23T10:37:54.106Z,47.20
2023-04-23T10:42:56.880Z,47.07
2023-04-23T10:47:57.577Z,47.79
2023-04-23T10:52:59.270Z,47.91
2023-04-23T10:58:03.222Z,46.79
2023-04-23T11:03:04.193Z,46.50
2023-04-23T11:13:26.092Z,47.01
2023-04-23T11:18:26.817Z,48.98
2023-04-23T11:23:33.035Z,51.49
2023-04-23T11:28:36.732Z,53.25
2023-04-23T11:33:39.373Z,53.29
2023-04-23T11:38:40.073Z,52.78
2023-04-23T11:43:43.511Z,52.78
2023-04-23T11:48:44.307Z,52.50
2023-04-23T11:53:47.305Z,51.21
2023-04-23T11:58:49.299Z,49.42
2023-04-23T12:03:50.425Z,51.14
2023-04-23T12:08:51.150Z,50.01
2023-04-23T12:13:54.051Z,51.12
2023-04-23T12:18:55.094Z,52.11
2023-04-23T12:23:55.833Z,52.61
2023-04-23T12:29:00.602Z,52.57
2023-04-23T12:34:04.114Z,51.75
2023-04-23T12:39:30.374Z,51.40
2023-04-23T12:44:34.458Z,52.11
2023-04-23T12:49:36.930Z,50.51
2023-04-23T12:54:39.076Z,49.09
2023-04-23T12:59:41.747Z,48.76
2023-04-23T13:04:42.646Z,48.53
2023-04-23T13:09:43.518Z,48.06
2023-04-23T13:14:45.653Z,47.72
2023-04-23T13:19:46.335Z,45.92
2023-04-23T13:24:46.938Z,45.09
2023-04-23T13:29:48.884Z,46.27
2023-04-23T13:34:49.606Z,46.85
2023-04-23T13:39:50.301Z,47.71
2023-04-23T13:44:52.520Z,47.28
2023-04-23T13:49:53.456Z,45.96
2023-04-23T13:54:54.707Z,45.11
2023-04-23T13:59:57.240Z,45.55
2023-04-23T14:04:58.465Z,46.77
2023-04-23T14:09:59.353Z,45.41
2023-04-23T14:15:01.364Z,46.36
2023-04-23T14:20:02.205Z,46.73
2023-04-23T14:25:04.558Z,45.92
2023-04-23T14:30:14.563Z,46.37
2023-04-23T14:35:15.626Z,46.55
2023-04-23T14:40:19.823Z,48.27
2023-04-23T14:45:21.805Z,50.32
2023-04-23T14:50:22.455Z,51.60
2023-04-23T14:55:23.363Z,52.60
2023-04-23T15:00:25.741Z,53.21
2023-04-23T15:05:26.687Z,53.80
2023-04-23T15:10:27.387Z,54.43
2023-04-23T15:15:44.335Z,54.66
2023-04-23T15:20:46.084Z,54.28
2023-04-23T15:25:46.807Z,54.99
2023-04-23T15:30:48.868Z,54.81
2023-04-23T15:35:51.082Z,54.68
2023-04-23T15:40:51.896Z,53.74
2023-04-23T15:45:55.578Z,54.09
2023-04-23T15:50:56.446Z,53.64
2023-04-23T15:55:57.521Z,52.88
2023-04-23T16:00:59.557Z,51.23
2023-04-23T16:06:00.263Z,49.60
2023-04-23T16:11:00.958Z,49.03
2023-04-23T16:16:03.303Z,49.33
2023-04-23T16:21:06.087Z,49.01
2023-04-23T16:26:08.776Z,49.11
2023-04-23T16:31:10.787Z,47.75
2023-04-23T16:36:13.003Z,48.99
2023-04-23T16:41:15.394Z,48.27
2023-04-23T16:46:17.682Z,47.26
2023-04-23T16:51:18.403Z,44.99
2023-04-23T16:56:19.247Z,42.07
2023-04-23T17:01:21.283Z,44.37
2023-04-23T17:06:27.184Z,45.68
2023-04-23T17:11:29.673Z,45.00
2023-04-23T17:16:31.743Z,43.58
2023-04-23T17:21:33.024Z,41.87
2023-04-23T17:26:34.075Z,44.12
2023-04-23T17:31:38.237Z,47.52
2023-04-23T17:36:39.290Z,50.32
2023-04-23T17:41:40.034Z,52.73
2023-04-23T17:46:42.025Z,55.25
2023-04-23T17:51:42.820Z,56.12
2023-04-23T17:56:43.430Z,57.62
2023-04-23T18:01:45.770Z,58.91
2023-04-23T18:06:46.499Z,60.24
2023-04-23T18:11:47.234Z,61.63
2023-04-23T18:16:49.330Z,62.00
2023-04-23T18:21:50.597Z,62.71
2023-04-23T18:26:52.166Z,63.86
2023-04-23T18:31:54.238Z,64.47
2023-04-23T18:36:56.110Z,64.80
2023-04-23T18:41:57.005Z,64.91
2023-04-23T18:47:00.934Z,64.82
2023-04-23T18:52:02.165Z,64.67
2023-04-23T18:57:03.021Z,64.66
2023-04-23T19:02:06.187Z,64.43
2023-04-23T19:07:06.964Z,64.57
2023-04-23T19:12:07.678Z,65.04
2023-04-23T19:17:09.686Z,65.73
2023-04-23T19:22:10.343Z,66.12
2023-04-23T19:27:11.017Z,67.20
2023-04-23T19:32:13.171Z,67.54
2023-04-23T19:37:13.768Z,67.79
2023-04-23T19:42:14.380Z,68.38
2023-04-23T19:47:17.159Z,67.95
2023-04-23T19:52:21.353Z,68.00
2023-04-23T19:57:22.333Z,67.87
2023-04-23T20:02:24.730Z,68.55
2023-04-23T20:07:25.408Z,69.28
2023-04-23T20:12:26.060Z,69.85
2023-04-23T20:17:29.982Z,70.58
2023-04-23T20:22:31.266Z,70.57
2023-04-23T20:27:32.166Z,71.29
2023-04-23T20:32:34.256Z,71.05
2023-04-23T20:37:35.267Z,70.72
2023-04-23T20:42:39.074Z,71.65
2023-04-23T20:47:41.592Z,71.79
2023-04-23T20:52:42.355Z,72.00
2023-04-23T20:57:43.051Z,71.99
2023-04-23T21:02:45.194Z,72.80
2023-04-23T21:07:45.955Z,72.87
2023-04-23T21:12:47.031Z,72.96
2023-04-23T21:17:49.054Z,73.76
2023-04-23T21:22:50.068Z,73.39
2023-04-23T21:27:50.724Z,73.76
2023-04-23T21:32:52.888Z,74.76
2023-04-23T21:37:53.722Z,75.03
2023-04-23T21:42:54.358Z,74.36
2023-04-23T21:47:56.908Z,74.73
2023-04-23T21:52:59.485Z,75.21
2023-04-23T21:58:15.774Z,75.50
2023-04-23T22:03:30.301Z,75.40
2023-04-23T22:08:40.697Z,75.77
2023-04-23T22:13:41.598Z,76.51
2023-04-23T22:18:44.639Z,76.50
2023-04-23T22:23:45.472Z,76.17
2023-04-23T22:28:46.256Z,77.25
2023-04-23T22:33:48.184Z,76.78
2023-04-23T22:38:48.815Z,77.17
2023-04-23T22:43:49.598Z,77.50
2023-04-23T22:48:53.555Z,76.78
2023-04-23T22:53:54.175Z,77.18
2023-04-23T22:58:55.801Z,77.32
2023-04-23T23:03:57.877Z,77.34
2023-04-23T23:08:58.971Z,77.37
2023-04-23T23:13:59.593Z,77.13
2023-04-23T23:19:01.582Z,77.55
2023-04-23T23:24:02.200Z,77.19
2023-04-23T23:29:02.816Z,76.65
2023-04-23T23:34:05.150Z,76.86
2023-04-23T23:39:06.664Z,77.31
2023-04-23T23:44:07.523Z,77.22
2023-04-23T23:49:09.505Z,77.21
2023-04-23T23:54:10.142Z,76.92
2023-04-23T23:59:10.754Z,77.39
